Time;durP1;ratioP1;P1;durP2;ratioP2;P2;SDS_P1;SDS_P2;PMS_P1;PMS_P2;Temp;Humidity;BMP_temperature;BMP_pressure;BME280_temperature;BME280_humidity;BME280_pressure;Samples;Min_cycle;Max_cycle;Signal;HPM_P1;HPM_P2
2023/05/01 00:01:04;;;;;;;3.60;2.13;;;;;;;11.76;63.69;101655.72;5063135;28;20032;-78
2023/05/01 00:03:29;;;;;;;5.03;2.40;;;;;;;11.76;63.44;101654.88;5071361;28;20063;-78
2023/05/01 00:06:00;;;;;;;3.90;2.20;;;;;;;11.75;63.60;101642.72;5065492;28;20055;-78
2023/05/01 00:08:25;;;;;;;8.02;2.42;;;;;;;11.75;63.78;101643.59;5058419;28;20484;-78
2023/05/01 00:10:50;;;;;;;3.58;2.10;;;;;;;11.75;63.51;101637.53;5068664;28;20037;-78
2023/05/01 00:13:20;;;;;;;5.57;2.40;;;;;;;11.74;64.49;101635.81;5070959;28;20104;-78
2023/05/01 00:15:46;;;;;;;6.03;2.35;;;;;;;11.69;63.78;101631.53;5056127;28;20525;-77
2023/05/01 00:18:11;;;;;;;3.75;2.47;;;;;;;11.69;63.95;101633.28;5055291;28;20124;-78
2023/05/01 00:20:37;;;;;;;8.50;2.38;;;;;;;11.67;63.96;101624.63;5062347;28;20039;-77
2023/05/01 00:23:02;;;;;;;4.47;2.40;;;;;;;11.65;64.08;101618.56;5066607;28;20078;-77
2023/05/01 00:25:28;;;;;;;3.40;2.15;;;;;;;11.64;64.05;101619.47;5071589;28;20036;-77
2023/05/01 00:27:53;;;;;;;5.00;2.22;;;;;;;11.63;64.52;101622.94;5068491;28;20024;-78
2023/05/01 00:30:18;;;;;;;3.33;2.35;;;;;;;11.60;65.27;101616.06;5054358;28;20028;-78
2023/05/01 00:32:44;;;;;;;4.45;2.17;;;;;;;11.56;64.74;101609.16;5055057;28;20024;-78
2023/05/01 00:35:09;;;;;;;6.13;2.20;;;;;;;11.53;63.95;101607.47;5053116;28;20029;-78
2023/05/01 00:37:34;;;;;;;4.10;2.15;;;;;;;11.51;64.06;101606.66;5053072;28;20028;-78
2023/05/01 00:39:59;;;;;;;4.00;2.20;;;;;;;11.50;63.57;101607.53;5053027;28;20035;-77
2023/05/01 00:42:25;;;;;;;4.38;2.17;;;;;;;11.48;66.26;101608.44;5055823;28;20079;-77
2023/05/01 00:44:50;;;;;;;3.70;2.05;;;;;;;11.47;66.09;101602.38;5057727;28;20095;-77
2023/05/01 00:47:15;;;;;;;3.30;2.05;;;;;;;11.48;65.23;101603.22;5053282;28;20032;-77
2023/05/01 00:49:42;;;;;;;4.05;2.20;;;;;;;11.46;65.65;101600.66;5056703;28;20063;-78
2023/05/01 00:52:08;;;;;;;4.35;2.22;;;;;;;11.43;67.24;101595.50;5065519;28;21744;-77
2023/05/01 00:54:35;;;;;;;4.93;2.35;;;;;;;11.45;67.16;101601.53;5059161;28;20025;-78
2023/05/01 00:57:01;;;;;;;4.32;2.30;;;;;;;11.44;67.50;101586.78;5066645;28;20046;-77
2023/05/01 00:59:26;;;;;;;3.22;1.98;;;;;;;11.46;66.66;101589.34;5064042;28;20485;-77
2023/05/01 01:01:51;;;;;;;5.38;2.45;;;;;;;11.45;66.12;101587.63;5066461;28;20016;-77
2023/05/01 01:04:17;;;;;;;3.95;2.30;;;;;;;11.42;67.72;101578.13;5058531;28;20382;-78
2023/05/01 01:06:54;;;;;;;3.63;2.08;;;;;;;11.45;66.78;101577.22;5060467;28;20116;-78
2023/05/01 01:09:49;;;;;;;3.97;2.28;;;;;;;11.45;66.16;101572.00;5053454;28;20041;-77
2023/05/01 01:12:26;;;;;;;3.50;2.10;;;;;;;11.42;64.48;101567.72;5057279;28;20078;-77
2023/05/01 01:15:29;;;;;;;5.28;2.17;;;;;;;11.44;64.96;101570.31;5062429;28;20024;-77
2023/05/01 01:18:18;;;;;;;4.25;2.30;;;;;;;11.41;65.80;101565.16;5050540;28;20040;-77
2023/05/01 01:20:54;;;;;;;4.05;2.28;;;;;;;11.38;64.08;101561.72;5057228;28;20036;-77
2023/05/01 01:23:38;;;;;;;3.92;2.20;;;;;;;11.39;64.75;101559.94;5064369;28;20153;-77
2023/05/01 01:26:28;;;;;;;2.92;2.05;;;;;;;11.37;64.79;101554.78;5065727;28;20023;-77
2023/05/01 01:29:23;;;;;;;3.33;2.10;;;;;;;11.37;64.27;101554.78;5054716;28;20067;-77
2023/05/01 01:32:16;;;;;;;4.43;2.10;;;;;;;11.35;65.09;101559.16;5061082;28;20029;-77
2023/05/01 01:34:54;;;;;;;4.28;2.28;;;;;;;11.32;66.14;101553.13;5056048;28;20063;-77
2023/05/01 01:37:24;;;;;;;4.28;1.88;;;;;;;11.28;67.29;101547.09;5061504;28;20036;-77
2023/05/01 01:39:57;;;;;;;4.55;2.15;;;;;;;11.27;66.22;101553.22;5055765;28;20036;-77
2023/05/01 01:42:35;;;;;;;4.10;2.08;;;;;;;11.28;65.55;101539.28;5068572;28;20028;-77
2023/05/01 01:45:09;;;;;;;3.17;1.95;;;;;;;11.26;65.46;101538.47;5057934;28;20469;-77
2023/05/01 01:47:37;;;;;;;5.60;2.20;;;;;;;11.25;65.25;101534.16;5061799;28;20032;-77
2023/05/01 01:50:07;;;;;;;4.57;2.08;;;;;;;11.22;64.67;101526.41;5061035;28;20065;-77
2023/05/01 01:52:34;;;;;;;5.00;2.70;;;;;;;11.20;65.39;101525.56;5062619;28;20484;-77
2023/05/01 01:55:05;;;;;;;4.53;2.38;;;;;;;11.19;65.83;101523.84;5059582;28;20025;-77
2023/05/01 01:57:32;;;;;;;3.38;2.17;;;;;;;11.17;65.74;101520.41;5061274;28;20085;-78
2023/05/01 01:59:57;;;;;;;5.13;2.47;;;;;;;11.15;64.62;101510.00;5058660;28;20060;-78
2023/05/01 02:02:25;;;;;;;4.30;2.40;;;;;;;11.13;65.63;101513.50;5062116;28;20051;-77
2023/05/01 02:04:52;;;;;;;4.13;2.13;;;;;;;11.11;66.26;101505.75;5063971;28;20465;-77
2023/05/01 02:07:19;;;;;;;3.78;2.33;;;;;;;11.11;65.82;101507.47;5055636;28;20388;-77
2023/05/01 02:09:45;;;;;;;4.00;2.30;;;;;;;11.10;66.40;101506.63;5055329;28;20049;-77
2023/05/01 02:12:13;;;;;;;3.78;2.13;;;;;;;11.08;66.31;101506.66;5059139;28;20460;-77
2023/05/01 02:14:41;;;;;;;4.55;2.28;;;;;;;11.07;68.24;101497.13;5066917;28;20029;-77
2023/05/01 02:17:08;;;;;;;3.28;2.13;;;;;;;11.06;67.94;101497.13;5058274;28;20032;-77
2023/05/01 02:19:37;;;;;;;3.97;2.20;;;;;;;11.04;67.57;101494.56;5051632;28;20032;-77
2023/05/01 02:22:04;;;;;;;4.47;2.13;;;;;;;11.01;67.56;101486.81;5073876;28;20020;-77
2023/05/01 02:24:31;;;;;;;3.20;2.08;;;;;;;10.99;67.94;101485.97;5053809;28;20480;-77
2023/05/01 02:27:02;;;;;;;3.47;2.30;;;;;;;10.96;68.87;101486.03;5069090;28;20021;-77
2023/05/01 02:29:27;;;;;;;3.22;2.30;;;;;;;10.97;68.16;101484.28;5071546;28;20051;-77
2023/05/01 02:31:53;;;;;;;4.00;2.25;;;;;;;10.93;69.42;101478.28;5071200;28;20333;-77
2023/05/01 02:34:18;;;;;;;3.45;2.33;;;;;;;10.91;70.12;101477.44;5071579;28;20024;-77
2023/05/01 02:36:43;;;;;;;4.47;2.40;;;;;;;10.90;68.18;101478.34;5063253;28;20033;-77
2023/05/01 02:39:09;;;;;;;4.70;2.50;;;;;;;10.85;70.31;101481.00;5055613;28;20021;-77
2023/05/01 02:41:36;;;;;;;4.38;2.63;;;;;;;10.86;70.34;101485.31;5056881;28;20059;-77
2023/05/01 02:44:03;;;;;;;3.58;2.28;;;;;;;10.88;70.03;101478.34;5072707;28;20028;-77
2023/05/01 02:46:32;;;;;;;4.85;2.65;;;;;;;10.87;68.87;101475.78;5074943;28;20036;-77
2023/05/01 02:49:00;;;;;;;3.55;2.13;;;;;;;10.89;69.10;101472.25;5074393;28;20528;-77
2023/05/01 02:51:26;;;;;;;3.22;2.30;;;;;;;10.87;69.05;101466.22;5074535;28;20024;-77
2023/05/01 02:53:53;;;;;;;4.63;2.35;;;;;;;10.85;67.86;101464.53;5069841;28;20046;-77
2023/05/01 02:56:18;;;;;;;3.92;2.83;;;;;;;10.82;68.38;101461.97;5062843;28;20043;-77
2023/05/01 02:58:44;;;;;;;3.30;2.20;;;;;;;10.80;69.81;101450.72;5062869;28;20033;-77
2023/05/01 03:01:10;;;;;;;5.93;2.40;;;;;;;10.79;71.54;101452.47;5069537;28;20025;-77
2023/05/01 03:03:36;;;;;;;7.30;2.38;;;;;;;10.80;70.77;101458.53;5064853;28;20036;-77
2023/05/01 03:06:02;;;;;;;4.40;2.45;;;;;;;10.80;68.42;101448.13;5071441;28;20326;-77
2023/05/01 03:08:27;;;;;;;3.88;2.60;;;;;;;10.78;68.27;101442.94;5068601;28;20094;-77
2023/05/01 03:10:52;;;;;;;5.15;2.72;;;;;;;10.76;68.54;101440.34;5058869;28;20041;-76
2023/05/01 03:13:18;;;;;;;5.47;2.92;;;;;;;10.76;68.29;101439.50;5064756;28;20033;-77
2023/05/01 03:15:43;;;;;;;4.53;2.38;;;;;;;10.73;69.53;101437.84;5065362;28;20556;-77
2023/05/01 03:18:08;;;;;;;5.97;2.72;;;;;;;10.71;71.38;101434.41;5071774;28;20103;-77
2023/05/01 03:20:34;;;;;;;4.70;2.70;;;;;;;10.71;70.78;101430.91;5063520;28;20028;-77
2023/05/01 03:22:59;;;;;;;5.35;2.70;;;;;;;10.69;70.05;101430.94;5064200;28;20104;-77
2023/05/01 03:25:25;;;;;;;7.90;2.85;;;;;;;10.68;71.51;101433.56;5063281;28;20028;-77
2023/05/01 03:27:50;;;;;;;6.55;2.65;;;;;;;10.67;71.04;101427.50;5068063;28;20111;-77
2023/05/01 03:30:15;;;;;;;4.70;2.72;;;;;;;10.66;69.96;101427.56;5066347;28;20027;-77
2023/05/01 03:32:41;;;;;;;4.70;2.67;;;;;;;10.64;69.05;101424.97;5059849;28;20107;-77
2023/05/01 03:35:07;;;;;;;4.43;2.88;;;;;;;10.65;68.24;101425.84;5070920;28;20102;-77
2023/05/01 03:37:33;;;;;;;5.22;2.83;;;;;;;10.61;70.89;101417.19;5060532;28;20111;-77
2023/05/01 03:39:58;;;;;;;5.90;2.90;;;;;;;10.62;71.90;101413.72;5072220;28;20107;-77
2023/05/01 03:42:24;;;;;;;4.93;2.85;;;;;;;10.63;69.19;101412.81;5058150;28;20081;-77
2023/05/01 03:44:50;;;;;;;5.72;3.00;;;;;;;10.61;68.62;101412.88;5055529;28;20029;-77
2023/05/01 03:47:15;;;;;;;6.65;3.00;;;;;;;10.58;69.69;101406.88;5061289;28;20112;-77
2023/05/01 03:49:42;;;;;;;4.85;3.00;;;;;;;10.57;70.38;101411.19;5054083;28;20037;-77
2023/05/01 03:52:08;;;;;;;4.75;3.10;;;;;;;10.59;69.33;101405.97;5054962;28;20016;-77
2023/05/01 03:54:33;;;;;;;5.40;3.28;;;;;;;10.56;70.53;101398.22;5057339;28;20031;-77
2023/05/01 03:56:59;;;;;;;7.45;3.10;;;;;;;10.54;71.63;101402.59;5065079;28;20036;-77
2023/05/01 03:59:25;;;;;;;5.43;3.17;;;;;;;10.51;71.52;101405.25;5063325;28;20036;-77
2023/05/01 04:01:50;;;;;;;4.38;2.67;;;;;;;10.52;71.07;101396.56;5063523;28;20025;-77
2023/05/01 04:04:15;;;;;;;5.30;2.97;;;;;;;10.50;69.94;101404.41;5068515;28;20029;-77
2023/05/01 04:06:40;;;;;;;4.97;3.03;;;;;;;10.49;69.74;101387.06;5056569;28;20071;-77
2023/05/01 04:09:07;;;;;;;6.45;3.20;;;;;;;10.48;69.33;101400.94;5060038;28;20048;-77
2023/05/01 04:11:32;;;;;;;5.85;3.15;;;;;;;10.46;69.97;101393.16;5059716;28;20497;-77
2023/05/01 04:13:57;;;;;;;4.95;3.13;;;;;;;10.46;69.26;101395.75;5070265;28;20025;-77
2023/05/01 04:16:23;;;;;;;5.43;3.13;;;;;;;10.43;70.80;101395.81;5058941;28;20477;-77
2023/05/01 04:18:48;;;;;;;7.45;3.10;;;;;;;10.45;69.33;101393.19;5059911;28;20043;-77
2023/05/01 04:21:16;;;;;;;4.97;3.00;;;;;;;10.44;69.08;101389.72;5067774;28;20020;-77
2023/05/01 04:23:41;;;;;;;9.93;3.30;;;;;;;10.44;69.14;101387.13;5065635;28;20069;-77
2023/05/01 04:26:07;;;;;;;6.97;3.30;;;;;;;10.45;70.73;101388.00;5072761;28;20099;-77
2023/05/01 04:28:32;;;;;;;5.10;2.90;;;;;;;10.44;71.67;101394.91;5061020;28;20466;-76
2023/05/01 04:30:58;;;;;;;6.57;3.35;;;;;;;10.43;71.90;101390.59;5063953;28;20099;-77
2023/05/01 04:33:23;;;;;;;5.90;3.20;;;;;;;10.45;70.46;101386.22;5060614;28;20024;-78
2023/05/01 04:35:48;;;;;;;7.47;3.28;;;;;;;10.43;70.45;101380.19;5065244;28;20461;-77
2023/05/01 04:38:14;;;;;;;7.13;3.20;;;;;;;10.41;70.25;101382.00;5057020;28;20064;-77
2023/05/01 04:40:39;;;;;;;6.75;3.30;;;;;;;10.41;70.03;101376.78;5053558;28;20036;-77
2023/05/01 04:43:04;;;;;;;7.28;3.33;;;;;;;10.40;70.78;101382.88;5060143;28;20052;-77
2023/05/01 04:45:31;;;;;;;6.80;3.17;;;;;;;10.40;71.34;101382.00;5069129;28;20028;-77
2023/05/01 04:47:56;;;;;;;6.20;3.55;;;;;;;10.40;71.22;101388.06;5061577;28;20052;-77
2023/05/01 04:50:21;;;;;;;7.47;3.58;;;;;;;10.38;70.60;101379.44;5064512;28;20052;-77
2023/05/01 04:52:47;;;;;;;5.35;3.10;;;;;;;10.38;71.25;101378.53;5065319;28;20492;-77
2023/05/01 04:55:12;;;;;;;5.15;3.35;;;;;;;10.39;71.30;101383.75;5063827;28;20025;-77
2023/05/01 04:57:37;;;;;;;6.82;3.63;;;;;;;10.39;70.73;101378.56;5066838;28;20388;-77
2023/05/01 05:00:03;;;;;;;9.65;3.83;;;;;;;10.39;71.34;101385.47;5063090;28;20024;-77
2023/05/01 05:02:29;;;;;;;4.38;2.90;;;;;;;10.39;72.85;101386.34;5058654;28;20702;-77
2023/05/01 05:04:55;;;;;;;9.38;3.70;;;;;;;10.40;71.61;101393.28;5071873;28;20477;-77
2023/05/01 05:07:20;;;;;;;4.78;2.92;;;;;;;10.37;71.00;101403.69;5062652;28;20141;-77
2023/05/01 05:09:46;;;;;;;7.10;3.40;;;;;;;10.33;71.06;101407.22;5052780;28;20060;-77
2023/05/01 05:12:13;;;;;;;4.82;3.38;;;;;;;10.34;72.76;101393.31;5061479;28;20021;-78
2023/05/01 05:14:38;;;;;;;5.65;3.70;;;;;;;10.36;72.86;101401.97;5070083;28;20028;-77
2023/05/01 05:17:05;;;;;;;5.72;3.67;;;;;;;10.35;73.48;101402.84;5055035;28;20036;-77
2023/05/01 05:19:30;;;;;;;7.90;3.60;;;;;;;10.36;71.28;101409.78;5062687;28;20032;-77
2023/05/01 05:21:55;;;;;;;5.90;3.70;;;;;;;10.39;72.26;101393.28;5054755;28;20032;-77
2023/05/01 05:24:20;;;;;;;7.47;3.80;;;;;;;10.40;72.76;101398.47;5067826;28;20031;-77
2023/05/01 05:26:46;;;;;;;6.55;3.72;;;;;;;10.43;72.78;101408.81;5068722;28;20032;-77
2023/05/01 05:29:11;;;;;;;6.60;3.88;;;;;;;10.46;71.82;101403.56;5058718;28;20048;-77
2023/05/01 05:31:36;;;;;;;7.78;3.83;;;;;;;10.50;72.41;101398.31;5054488;28;20071;-77
2023/05/01 05:34:01;;;;;;;6.47;4.13;;;;;;;10.51;71.63;101397.44;5056472;28;20560;-77
2023/05/01 05:36:27;;;;;;;6.38;3.88;;;;;;;10.53;72.05;101398.28;5054344;28;20025;-77
2023/05/01 05:38:52;;;;;;;6.70;4.00;;;;;;;10.56;72.48;101403.44;5071933;28;20020;-77
2023/05/01 05:41:18;;;;;;;7.70;3.97;;;;;;;10.56;72.35;101400.81;5068500;28;20031;-77
2023/05/01 05:43:43;;;;;;;7.57;4.20;;;;;;;10.57;71.83;101399.94;5061860;28;20025;-77
2023/05/01 05:46:08;;;;;;;6.05;4.05;;;;;;;10.60;71.93;101398.13;5071094;28;20023;-77
2023/05/01 05:48:33;;;;;;;8.40;4.05;;;;;;;10.63;71.62;101402.41;5055732;28;20453;-77
2023/05/01 05:50:59;;;;;;;7.40;3.97;;;;;;;10.66;71.99;101391.97;5061103;28;20032;-78
2023/05/01 05:53:24;;;;;;;6.25;3.65;;;;;;;10.68;71.51;101387.59;5055821;28;20035;-77
2023/05/01 05:55:49;;;;;;;6.53;4.20;;;;;;;10.72;71.53;101380.59;5054323;28;20037;-77
2023/05/01 05:58:22;;;;;;;7.63;3.90;;;;;;;10.75;70.92;101385.75;5057426;28;20158;-78
2023/05/01 06:00:48;;;;;;;7.75;4.20;;;;;;;10.78;70.41;101383.09;5060894;28;20397;-77
2023/05/01 06:03:13;;;;;;;6.22;4.53;;;;;;;10.81;71.07;101376.97;5051288;28;20028;-77
2023/05/01 06:05:39;;;;;;;6.45;4.47;;;;;;;10.86;70.43;101381.19;5055943;28;20024;-77
2023/05/01 06:08:04;;;;;;;6.88;4.40;;;;;;;10.89;70.40;101385.50;5062489;28;20020;-77
2023/05/01 06:10:30;;;;;;;7.85;4.55;;;;;;;10.95;70.69;101376.72;5056979;28;20050;-77
2023/05/01 06:12:55;;;;;;;7.00;4.07;;;;;;;10.98;70.44;101385.31;5059728;28;20081;-77
2023/05/01 06:15:20;;;;;;;6.95;4.05;;;;;;;11.02;70.39;101373.09;5054808;28;20036;-77
2023/05/01 06:17:46;;;;;;;6.40;4.03;;;;;;;11.05;70.25;101376.53;5059462;28;20100;-77
2023/05/01 06:20:13;;;;;;;7.20;4.13;;;;;;;11.06;69.71;101373.03;5056527;28;20032;-77
2023/05/01 06:22:38;;;;;;;8.65;4.18;;;;;;;11.07;69.99;101377.34;5056167;28;20029;-76
2023/05/01 06:25:05;;;;;;;6.95;4.20;;;;;;;11.10;70.24;101371.22;5059128;28;20025;-77
2023/05/01 06:27:31;;;;;;;7.10;4.07;;;;;;;11.12;69.69;101373.78;5057237;28;20051;-77
2023/05/01 06:29:56;;;;;;;6.90;4.13;;;;;;;11.16;68.84;101378.03;5056310;28;20462;-77
2023/05/01 06:32:22;;;;;;;7.47;4.22;;;;;;;11.17;69.10;101379.75;5060136;28;20017;-77
2023/05/01 06:34:47;;;;;;;7.97;4.38;;;;;;;11.23;69.44;101377.06;5054959;28;20029;-78
2023/05/01 06:37:12;;;;;;;7.13;4.03;;;;;;;11.28;69.67;101379.56;5054677;28;20052;-77
2023/05/01 06:39:38;;;;;;;8.60;4.65;;;;;;;11.33;69.54;101375.97;5052655;28;20033;-77
2023/05/01 06:42:03;;;;;;;9.55;4.85;;;;;;;11.39;69.36;101370.63;5056374;28;20473;-77
2023/05/01 06:44:29;;;;;;;10.27;4.40;;;;;;;11.44;68.84;101367.94;5069948;28;20141;-77
2023/05/01 06:46:55;;;;;;;8.40;4.75;;;;;;;11.50;69.26;101365.22;5057469;28;20032;-77
2023/05/01 06:49:21;;;;;;;7.53;4.22;;;;;;;11.56;68.18;101368.56;5052021;28;20435;-76
2023/05/01 06:51:47;;;;;;;7.47;4.65;;;;;;;11.62;69.05;101366.66;5052180;28;20066;-77
2023/05/01 06:54:12;;;;;;;7.55;4.82;;;;;;;11.68;69.12;101363.94;5051446;28;20017;-77
2023/05/01 06:56:38;;;;;;;7.70;4.40;;;;;;;11.78;68.61;101366.34;5054077;28;20048;-77
2023/05/01 06:59:04;;;;;;;7.22;4.10;;;;;;;11.85;70.20;101365.31;5065165;28;20485;-77
2023/05/01 07:01:30;;;;;;;7.07;4.57;;;;;;;11.95;67.92;101366.84;5065561;28;20033;-77
2023/05/01 07:03:55;;;;;;;6.95;4.47;;;;;;;12.04;67.21;101372.75;5055241;28;20024;-77
2023/05/01 07:06:20;;;;;;;7.63;4.53;;;;;;;12.11;67.54;101369.13;5060136;28;20021;-77
2023/05/01 07:08:45;;;;;;;7.00;4.30;;;;;;;12.17;67.89;101368.94;5063301;28;20423;-77
2023/05/01 07:11:11;;;;;;;7.13;4.88;;;;;;;12.22;67.74;101366.22;5054272;28;20044;-77
2023/05/01 07:13:37;;;;;;;6.90;4.40;;;;;;;12.26;66.85;101375.69;5057436;28;20052;-77
2023/05/01 07:16:02;;;;;;;7.75;4.65;;;;;;;12.30;68.41;101367.75;5053840;28;20025;-77
2023/05/01 07:18:28;;;;;;;7.82;4.70;;;;;;;12.38;67.00;101366.72;5050516;28;20033;-77
2023/05/01 07:20:53;;;;;;;8.07;5.10;;;;;;;12.43;67.13;101357.03;5059239;28;20032;-77
2023/05/01 07:23:18;;;;;;;8.52;4.82;;;;;;;12.49;67.63;101358.63;5074226;28;20017;-77
2023/05/01 07:25:44;;;;;;;7.70;4.88;;;;;;;12.54;67.36;101356.75;5073701;28;20020;-78
2023/05/01 07:28:10;;;;;;;7.30;4.72;;;;;;;12.57;67.11;101359.25;5066306;28;20021;-77
2023/05/01 07:30:36;;;;;;;7.22;4.57;;;;;;;12.60;66.73;101360.06;5055955;28;20024;-77
2023/05/01 07:33:01;;;;;;;7.70;4.82;;;;;;;12.65;68.09;101364.28;5059036;28;20056;-77
2023/05/01 07:35:27;;;;;;;7.95;5.05;;;;;;;12.70;67.32;101368.50;5060252;28;20504;-77
2023/05/01 07:37:53;;;;;;;7.68;4.95;;;;;;;12.75;66.23;101355.34;5065396;28;20052;-77
2023/05/01 07:40:19;;;;;;;7.82;4.65;;;;;;;12.79;65.91;101369.16;5064360;28;20017;-77
2023/05/01 07:42:44;;;;;;;8.13;4.85;;;;;;;12.84;67.03;101355.06;5066746;28;20089;-77
2023/05/01 07:45:10;;;;;;;10.73;5.30;;;;;;;12.90;66.41;101364.50;5063726;28;20474;-77
2023/05/01 07:47:35;;;;;;;8.07;5.10;;;;;;;12.97;66.73;101354.75;5064909;28;20366;-77
2023/05/01 07:50:01;;;;;;;7.13;4.90;;;;;;;13.04;66.21;101362.38;5068186;28;20149;-77
2023/05/01 07:52:27;;;;;;;7.45;5.13;;;;;;;13.11;66.69;101357.84;5066508;28;20385;-77
2023/05/01 07:54:52;;;;;;;7.30;5.40;;;;;;;13.16;65.41;101361.16;5059337;28;20024;-77
2023/05/01 07:57:17;;;;;;;9.07;5.50;;;;;;;13.20;65.88;101365.41;5072651;28;20028;-77
2023/05/01 07:59:43;;;;;;;9.27;5.05;;;;;;;13.25;65.81;101362.66;5068246;28;20033;-77
2023/05/01 08:02:08;;;;;;;9.60;5.35;;;;;;;13.27;67.25;101354.78;5056591;28;20071;-77
2023/05/01 08:04:33;;;;;;;8.70;5.47;;;;;;;13.31;65.88;101364.25;5059159;28;20029;-77
2023/05/01 08:06:58;;;;;;;7.90;5.40;;;;;;;13.35;65.67;101356.28;5059698;28;20032;-77
2023/05/01 08:09:24;;;;;;;9.35;5.03;;;;;;;13.40;66.05;101364.00;5061798;28;20040;-77
2023/05/01 08:11:49;;;;;;;7.75;4.82;;;;;;;13.44;65.88;101359.53;5062590;28;20020;-77
2023/05/01 08:14:16;;;;;;;8.63;5.22;;;;;;;13.48;66.71;101356.81;5068883;28;20044;-77
2023/05/01 08:16:42;;;;;;;6.60;5.22;;;;;;;13.51;66.13;101356.69;5062419;28;20031;-77
2023/05/01 08:19:07;;;;;;;9.15;5.35;;;;;;;13.57;66.80;101360.03;5063716;28;20033;-77
2023/05/01 08:21:32;;;;;;;8.77;5.60;;;;;;;13.62;67.37;101352.94;5066699;28;20075;-77
2023/05/01 08:23:58;;;;;;;8.23;4.90;;;;;;;13.66;63.83;101362.41;5059512;28;20131;-77
2023/05/01 08:26:23;;;;;;;5.80;4.32;;;;;;;13.71;62.84;101363.09;5063252;28;20123;-77
2023/05/01 08:28:48;;;;;;;7.32;4.40;;;;;;;13.79;63.65;101361.09;5059447;28;20035;-77
2023/05/01 08:31:13;;;;;;;6.65;4.45;;;;;;;13.86;64.76;101356.53;5056832;28;20044;-77
2023/05/01 08:33:43;;;;;;;6.97;4.90;;;;;;;13.94;64.34;101358.91;5061683;28;20032;-77
2023/05/01 08:36:09;;;;;;;6.70;4.53;;;;;;;14.02;65.36;101356.91;5064297;28;20052;-77
2023/05/01 08:38:35;;;;;;;8.93;4.80;;;;;;;14.06;62.51;101352.44;5056635;28;20465;-77
2023/05/01 08:41:02;;;;;;;6.38;4.53;;;;;;;14.09;61.53;101358.44;5061299;28;20209;-77
2023/05/01 08:43:29;;;;;;;7.18;4.85;;;;;;;14.14;61.80;101354.81;5061104;28;20032;-77
2023/05/01 08:45:57;;;;;;;9.05;4.90;;;;;;;14.18;62.15;101359.00;5060000;28;20119;-78
2023/05/01 08:48:24;;;;;;;9.02;4.82;;;;;;;14.20;61.26;101357.22;5060671;28;20477;-77
2023/05/01 08:50:51;;;;;;;7.47;4.85;;;;;;;14.26;63.20;101351.78;5056834;28;20110;-77
2023/05/01 08:53:17;;;;;;;7.45;5.15;;;;;;;14.32;61.45;101354.22;5060676;28;20039;-77
2023/05/01 08:55:46;;;;;;;12.32;5.05;;;;;;;14.36;61.73;101352.34;5056584;28;20516;-77
2023/05/01 08:58:13;;;;;;;7.57;4.43;;;;;;;14.40;60.77;101352.16;5061162;28;21952;-77
2023/05/01 09:00:40;;;;;;;8.07;4.60;;;;;;;14.49;60.10;101348.38;5062409;28;20044;-77
2023/05/01 09:03:07;;;;;;;7.57;4.85;;;;;;;14.59;61.73;101348.94;5063181;28;20032;-77
2023/05/01 09:05:33;;;;;;;9.38;5.13;;;;;;;14.68;61.50;101351.28;5057018;28;20749;-77
2023/05/01 09:07:58;;;;;;;7.47;4.60;;;;;;;14.78;61.97;101345.69;5060803;28;20020;-77
2023/05/01 09:10:24;;;;;;;6.30;4.43;;;;;;;14.86;61.88;101354.13;5058631;28;20052;-77
2023/05/01 09:13:10;;;;;;;8.10;5.15;;;;;;;14.97;62.83;101353.75;5058301;28;20055;-77
2023/05/01 09:15:35;;;;;;;7.60;4.93;;;;;;;15.09;62.22;101358.56;5060694;28;20136;-77
2023/05/01 09:18:01;;;;;;;8.63;5.22;;;;;;;15.14;60.75;101356.63;5058176;28;20498;-77
2023/05/01 09:20:27;;;;;;;6.85;4.43;;;;;;;15.20;61.13;101352.91;5057409;28;20036;-77
2023/05/01 09:22:55;;;;;;;8.15;5.00;;;;;;;15.20;60.65;101363.38;5062680;28;20025;-77
2023/05/01 09:25:21;;;;;;;7.70;5.00;;;;;;;15.23;59.56;101357.19;5058467;28;20047;-77
2023/05/01 09:27:46;;;;;;;8.32;4.88;;;;;;;15.29;60.95;101360.44;5053351;28;20434;-77
2023/05/01 09:30:30;;;;;;;7.15;4.80;;;;;;;15.37;60.46;101354.06;5060837;28;20048;-77
2023/05/01 09:33:11;;;;;;;9.57;5.05;;;;;;;15.39;58.52;101355.72;5060674;28;20131;-77
2023/05/01 09:35:51;;;;;;;9.95;4.53;;;;;;;15.44;60.13;101347.66;5059688;28;20024;-77
2023/05/01 09:38:18;;;;;;;7.97;4.90;;;;;;;15.47;60.32;101356.25;5053692;28;20078;-77
2023/05/01 09:40:44;;;;;;;6.03;4.20;;;;;;;15.50;57.07;101346.56;5053803;28;20028;-77
2023/05/01 09:43:09;;;;;;;7.65;4.65;;;;;;;15.56;59.75;101344.56;5057136;28;20024;-77
2023/05/01 09:45:35;;;;;;;6.45;4.43;;;;;;;15.59;55.20;101347.06;5059255;28;20446;-77
2023/05/01 09:48:10;;;;;;;6.50;4.68;;;;;;;15.63;57.86;101346.03;5075390;28;20029;-77
2023/05/01 09:50:35;;;;;;;5.80;4.20;;;;;;;15.68;57.24;101347.66;5059229;28;20027;-78
2023/05/01 09:53:03;;;;;;;8.18;4.85;;;;;;;15.75;55.46;101343.84;5071146;28;20024;-77
2023/05/01 09:55:29;;;;;;;6.65;4.80;;;;;;;15.86;54.65;101346.94;5067641;28;20028;-77
2023/05/01 09:57:54;;;;;;;6.15;4.65;;;;;;;15.97;55.51;101351.75;5059118;28;20075;-77
2023/05/01 10:00:20;;;;;;;7.50;4.43;;;;;;;16.04;57.64;101344.50;5059203;28;20482;-77
2023/05/01 10:02:47;;;;;;;7.00;4.60;;;;;;;16.13;54.98;101346.75;5058229;28;20025;-77
2023/05/01 10:05:14;;;;;;;8.68;5.20;;;;;;;16.20;55.05;101340.34;5053752;28;20026;-78
2023/05/01 10:07:54;;;;;;;6.82;4.75;;;;;;;16.30;57.03;101345.19;5055217;28;20496;-77
2023/05/01 10:10:21;;;;;;;7.45;4.78;;;;;;;16.39;57.06;101340.41;5056671;28;20041;-77
2023/05/01 10:12:47;;;;;;;7.20;5.18;;;;;;;16.49;56.20;101340.88;5061793;28;20034;-77
2023/05/01 10:15:14;;;;;;;6.63;5.22;;;;;;;16.60;54.40;101347.41;5061000;28;20590;-78
2023/05/01 10:17:42;;;;;;;8.18;5.20;;;;;;;16.68;54.66;101350.59;5055795;28;20050;-78
2023/05/01 10:20:08;;;;;;;9.18;5.70;;;;;;;16.77;54.98;101344.91;5053637;28;20115;-78
2023/05/01 10:22:34;;;;;;;11.00;5.18;;;;;;;16.84;55.04;101346.38;5056826;28;20060;-78
2023/05/01 10:25:03;;;;;;;7.15;4.55;;;;;;;16.93;54.09;101346.88;5056926;28;20485;-77
2023/05/01 10:27:29;;;;;;;7.53;5.15;;;;;;;17.01;52.63;101347.41;5057864;28;20485;-77
2023/05/01 10:29:54;;;;;;;5.90;4.43;;;;;;;17.13;54.60;101352.13;5054088;28;20029;-77
2023/05/01 10:32:20;;;;;;;6.55;4.78;;;;;;;17.19;52.84;101348.34;5053430;28;20099;-77
2023/05/01 10:34:50;;;;;;;6.88;4.65;;;;;;;17.31;52.39;101349.56;5054001;28;20380;-78
2023/05/01 10:37:25;;;;;;;7.10;5.00;;;;;;;17.42;54.63;101342.03;5055025;28;20025;-78
2023/05/01 10:39:50;;;;;;;6.50;4.75;;;;;;;17.54;55.30;101358.19;5057059;28;20032;-78
2023/05/01 10:42:16;;;;;;;9.07;5.10;;;;;;;17.63;56.57;101349.84;5057242;28;20033;-78
2023/05/01 10:44:42;;;;;;;7.15;4.68;;;;;;;17.69;49.52;101348.69;5054572;28;20053;-78
2023/05/01 10:47:22;;;;;;;7.63;4.90;;;;;;;17.77;51.37;101349.19;5056307;28;20060;-78
2023/05/01 10:50:07;;;;;;;5.72;4.45;;;;;;;17.80;52.91;101349.06;5053994;28;20053;-78
2023/05/01 10:53:03;;;;;;;6.53;4.88;;;;;;;17.80;52.86;101346.41;5062772;28;20062;-78
2023/05/01 10:55:41;;;;;;;7.55;4.70;;;;;;;17.79;51.47;101341.22;5063863;28;20489;-77
2023/05/01 10:58:06;;;;;;;9.13;4.97;;;;;;;17.81;50.33;101342.00;5057551;28;20489;-78
2023/05/01 11:00:33;;;;;;;5.93;4.28;;;;;;;17.79;49.95;101335.94;5057410;28;20044;-77
2023/05/01 11:03:20;;;;;;;15.43;5.18;;;;;;;17.78;52.19;101336.88;5060464;28;20458;-77
2023/05/01 11:06:03;;;;;;;7.68;4.55;;;;;;;17.78;51.69;101334.25;5062108;28;20029;-77
2023/05/01 11:08:32;;;;;;;9.10;5.15;;;;;;;17.81;52.97;101336.72;5063372;28;20033;-78
2023/05/01 11:11:20;;;;;;;6.78;5.25;;;;;;;17.87;53.42;101334.66;5059794;28;20067;-77
2023/05/01 11:13:59;;;;;;;7.00;5.10;;;;;;;17.94;54.48;101332.56;5061127;28;20116;-77
2023/05/01 11:16:36;;;;;;;8.55;5.30;;;;;;;17.97;55.04;101332.41;5061184;28;20028;-77
2023/05/01 11:19:06;;;;;;;9.13;5.47;;;;;;;17.99;54.98;101335.88;5064164;28;20025;-78
2023/05/01 11:21:33;;;;;;;7.35;5.43;;;;;;;17.98;55.59;101338.59;5059486;28;20469;-77
2023/05/01 11:23:59;;;;;;;19.00;6.20;;;;;;;18.01;54.18;101339.28;5058131;28;20035;-78
2023/05/01 11:26:25;;;;;;;8.27;5.65;;;;;;;18.03;52.56;101332.16;5059022;28;20615;-77